createdAt,value
2023-01-17T00:01:34.284Z,96777.41
2023-01-17T00:05:58.974Z,96787.16
2023-01-17T00:10:07.265Z,96793.41
2023-01-17T00:14:08.783Z,96800.22
2023-01-17T00:18:10.345Z,96800.19
2023-01-17T00:22:40.042Z,96807.56
2023-01-17T00:27:01.702Z,96819.28
2023-01-17T00:31:04.798Z,96813.59
2023-01-17T00:35:06.956Z,96825.56
2023-01-17T00:39:09.301Z,96827.50
2023-01-17T00:43:30.960Z,96842.19
2023-01-17T00:47:53.084Z,96843.63
2023-01-17T00:52:13.328Z,96842.53
2023-01-17T00:56:33.678Z,96861.03
2023-01-17T01:00:54.312Z,96867.38
2023-01-17T01:05:14.552Z,96878.84
2023-01-17T01:09:34.615Z,96879.47
2023-01-17T01:13:57.671Z,96895.31
2023-01-17T01:18:27.222Z,96895.16
2023-01-17T01:22:47.684Z,96906.88
2023-01-17T01:27:07.827Z,96919.44
2023-01-17T01:31:27.921Z,96920.00
2023-01-17T01:35:29.593Z,96930.34
2023-01-17T01:39:31.103Z,96928.47
2023-01-17T01:43:51.153Z,96944.00
2023-01-17T01:47:58.185Z,96944.53
2023-01-17T01:52:02.456Z,96963.59
2023-01-17T01:56:07.743Z,96962.53
2023-01-17T02:00:16.519Z,96969.59
2023-01-17T02:04:19.437Z,96971.22
2023-01-17T02:08:22.874Z,96965.81
2023-01-17T02:12:25.181Z,96971.25
2023-01-17T02:16:45.133Z,96967.44
2023-01-17T02:21:08.310Z,96975.06
2023-01-17T02:25:18.653Z,96969.63
2023-01-17T02:29:42.568Z,96982.16
2023-01-17T02:34:05.178Z,96984.59
2023-01-17T02:38:17.183Z,96982.69
2023-01-17T02:42:26.480Z,96990.06
2023-01-17T02:46:28.147Z,96994.13
2023-01-17T02:51:08.956Z,96995.75
2023-01-17T02:55:23.166Z,97000.13
2023-01-17T02:59:54.030Z,97005.88
2023-01-17T03:04:06.776Z,96997.41
2023-01-17T03:08:09.740Z,96997.13
2023-01-17T03:12:12.633Z,96995.78
2023-01-17T03:16:18.904Z,96994.97
2023-01-17T03:20:22.548Z,97007.25
2023-01-17T03:24:24.344Z,97003.16
2023-01-17T03:28:25.972Z,96995.53
2023-01-17T03:32:28.148Z,96998.81
2023-01-17T03:36:29.822Z,96999.34
2023-01-17T03:40:31.453Z,97001.78
2023-01-17T03:44:34.277Z,97001.75
2023-01-17T03:48:35.866Z,97003.94
2023-01-17T03:52:37.442Z,97005.53
2023-01-17T03:56:38.979Z,97005.53
2023-01-17T04:00:40.507Z,97003.34
2023-01-17T04:04:42.065Z,97006.84
2023-01-17T04:08:43.659Z,97008.19
2023-01-17T04:12:45.346Z,97009.22
2023-01-17T04:16:46.974Z,97015.69
2023-01-17T04:20:48.672Z,97015.66
2023-01-17T04:24:50.309Z,97017.25
2023-01-17T04:28:52.149Z,97022.63
2023-01-17T04:32:54.332Z,97029.69
2023-01-17T04:36:55.863Z,97034.56
2023-01-17T04:40:57.565Z,97035.97
2023-01-17T04:44:59.114Z,97038.50
2023-01-17T04:49:00.772Z,97034.22
2023-01-17T04:53:02.919Z,97039.97
2023-01-17T04:57:04.462Z,97051.69
2023-01-17T05:01:08.308Z,97057.19
2023-01-17T05:05:10.697Z,97048.22
2023-01-17T05:09:12.486Z,97046.91
2023-01-17T05:13:14.334Z,97047.44
2023-01-17T05:17:15.965Z,97050.44
2023-01-17T05:21:17.491Z,97046.66
2023-01-17T05:25:19.160Z,97052.94
2023-01-17T05:29:21.868Z,97059.19
2023-01-17T05:33:23.431Z,97053.19
2023-01-17T05:37:24.961Z,97062.16
2023-01-17T05:41:26.539Z,97058.66
2023-01-17T05:45:29.550Z,97056.19
2023-01-17T05:49:31.180Z,97057.28
2023-01-17T05:53:33.015Z,97059.72
2023-01-17T05:57:37.803Z,97065.47
2023-01-17T06:01:41.348Z,97060.00
2023-01-17T06:05:43.288Z,97055.63
2023-01-17T06:09:44.996Z,97063.81
2023-01-17T06:13:48.831Z,97069.53
2023-01-17T06:17:50.536Z,97074.69
2023-01-17T06:21:52.077Z,97077.41
2023-01-17T06:25:53.829Z,97083.13
2023-01-17T06:29:55.423Z,97086.41
2023-01-17T06:33:57.097Z,97070.66
2023-01-17T06:38:00.790Z,97067.66
2023-01-17T06:42:02.386Z,97070.66
2023-01-17T06:46:04.126Z,97075.53
2023-01-17T06:50:11.028Z,97076.31
2023-01-17T06:54:13.192Z,97078.47
2023-01-17T06:58:15.186Z,97068.41
2023-01-17T07:02:16.770Z,97071.38
2023-01-17T07:06:19.110Z,97074.38
2023-01-17T07:10:21.768Z,97064.56
2023-01-17T07:14:23.291Z,97066.19
2023-01-17T07:18:25.132Z,97068.84
2023-01-17T07:22:28.189Z,97059.03
2023-01-17T07:26:30.555Z,97064.47
2023-01-17T07:30:33.160Z,97053.56
2023-01-17T07:34:34.721Z,97059.78
2023-01-17T07:38:36.658Z,97056.53
2023-01-17T07:42:38.204Z,97056.22
2023-01-17T07:46:40.751Z,97050.56
2023-01-17T07:50:43.590Z,97053.25
2023-01-17T07:54:45.201Z,97042.41
2023-01-17T07:58:48.634Z,97043.72
2023-01-17T08:02:50.339Z,97026.84
2023-01-17T08:06:55.103Z,97022.19
2023-01-17T08:10:58.214Z,97021.09
2023-01-17T08:14:59.871Z,97011.00
2023-01-17T08:19:02.452Z,97006.38
2023-01-17T08:23:06.135Z,97003.91
2023-01-17T08:27:09.116Z,97002.84
2023-01-17T08:31:10.919Z,97001.75
2023-01-17T08:35:12.694Z,97008.59
2023-01-17T08:39:14.966Z,97009.16
2023-01-17T08:43:17.034Z,97007.56
2023-01-17T08:47:18.696Z,97001.88
2023-01-17T08:51:20.257Z,97006.56
2023-01-17T08:55:22.579Z,97004.41
2023-01-17T08:59:25.052Z,97009.31
2023-01-17T09:03:26.600Z,97006.66
2023-01-17T09:07:28.577Z,97012.66
2023-01-17T09:11:30.148Z,97007.75
2023-01-17T09:15:32.040Z,97006.69
2023-01-17T09:19:35.476Z,97015.41
2023-01-17T09:23:37.414Z,97011.84
2023-01-17T09:27:39.644Z,97016.75
2023-01-17T09:31:42.307Z,97021.09
2023-01-17T09:35:45.142Z,97024.09
2023-01-17T09:39:46.660Z,97019.19
2023-01-17T09:43:57.906Z,97028.69
2023-01-17T09:48:03.508Z,97031.91
2023-01-17T09:52:08.571Z,97046.38
2023-01-17T09:56:15.909Z,97049.63
2023-01-17T10:00:39.320Z,97043.63
2023-01-17T10:05:04.117Z,97045.97
2023-01-17T10:09:43.447Z,97048.56
2023-01-17T10:13:53.643Z,97046.78
2023-01-17T10:18:29.501Z,97045.38
2023-01-17T10:22:32.049Z,97041.28
2023-01-17T10:26:36.666Z,97039.66
2023-01-17T10:30:43.714Z,97041.78
2023-01-17T10:34:51.475Z,97040.50
2023-01-17T10:39:00.796Z,97030.16
2023-01-17T10:43:25.697Z,97025.81
2023-01-17T10:47:34.646Z,97025.22
2023-01-17T10:51:59.991Z,97034.34
2023-01-17T10:56:02.696Z,97040.09
2023-01-17T11:00:22.635Z,97036.28
2023-01-17T11:04:36.631Z,97026.69
2023-01-17T11:08:56.456Z,97025.38
2023-01-17T11:12:58.270Z,97020.28
2023-01-17T11:17:02.251Z,97010.94
2023-01-17T11:21:20.793Z,97006.28
2023-01-17T11:25:33.990Z,97007.88
2023-01-17T11:29:40.612Z,96994.72
2023-01-17T11:33:56.436Z,96982.47
2023-01-17T11:38:19.853Z,96979.31
2023-01-17T11:42:38.625Z,96972.00
2023-01-17T11:46:40.237Z,96971.00
2023-01-17T11:50:47.193Z,96968.03
2023-01-17T11:54:51.581Z,96968.59
2023-01-17T11:59:07.362Z,96958.22
2023-01-17T12:03:29.665Z,96952.84
2023-01-17T12:07:42.050Z,96952.19
2023-01-17T12:12:13.640Z,96937.16
2023-01-17T12:16:48.852Z,96939.59
2023-01-17T12:21:18.019Z,96928.81
2023-01-17T12:25:37.819Z,96925.03
2023-01-17T12:29:58.921Z,96917.72
2023-01-17T12:34:28.607Z,96914.94
2023-01-17T12:38:39.835Z,96902.16
2023-01-17T12:42:48.863Z,96896.81
2023-01-17T12:47:03.459Z,96898.84
2023-01-17T12:51:30.952Z,96892.44
2023-01-17T12:55:54.857Z,96886.47
2023-01-17T13:00:12.550Z,96887.31
2023-01-17T13:04:24.995Z,96872.47
2023-01-17T13:08:48.406Z,96865.38
2023-01-17T13:12:51.806Z,96865.13
2023-01-17T13:16:59.326Z,96864.03
2023-01-17T13:21:07.563Z,96862.28
2023-01-17T13:25:41.437Z,96858.53
2023-01-17T13:30:03.461Z,96860.38
2023-01-17T13:34:23.676Z,96862.19
2023-01-17T13:39:00.601Z,96869.41
2023-01-17T13:43:05.363Z,96870.94
2023-01-17T13:47:11.022Z,96875.25
2023-01-17T13:51:12.910Z,96876.44
2023-01-17T13:55:45.014Z,96863.38
2023-01-17T13:59:46.658Z,96866.69
2023-01-17T14:03:51.512Z,96863.34
2023-01-17T14:08:06.554Z,96855.69
2023-01-17T14:12:12.380Z,96852.81
2023-01-17T14:16:27.631Z,96849.59
2023-01-17T14:20:45.065Z,96850.84
2023-01-17T14:25:02.817Z,96839.53
2023-01-17T14:29:42.599Z,96826.38
2023-01-17T14:33:44.125Z,96829.84
2023-01-17T14:37:51.374Z,96832.53
2023-01-17T14:41:53.284Z,96829.97
2023-01-17T14:46:00.461Z,96839.66
2023-01-17T14:50:23.543Z,96840.63
2023-01-17T14:54:26.555Z,96853.84
2023-01-17T14:58:42.221Z,96858.56
2023-01-17T15:02:44.735Z,96862.22
2023-01-17T15:06:48.147Z,96861.19
2023-01-17T15:10:56.038Z,96877.06
2023-01-17T15:14:59.489Z,96864.00
2023-01-17T15:19:02.269Z,96871.16
2023-01-17T15:23:04.329Z,96880.53
2023-01-17T15:27:06.564Z,96876.22
2023-01-17T15:31:40.936Z,96870.00
2023-01-17T15:35:42.536Z,96874.72
2023-01-17T15:39:44.162Z,96867.66
2023-01-17T15:43:46.400Z,96868.78
2023-01-17T15:47:49.018Z,96869.31
2023-01-17T15:51:52.422Z,96870.72
2023-01-17T15:55:54.487Z,96877.59
2023-01-17T16:00:19.198Z,96875.16
2023-01-17T16:04:46.751Z,96879.53
2023-01-17T16:08:52.400Z,96894.53
2023-01-17T16:12:56.198Z,96887.97
2023-01-17T16:16:59.855Z,96881.72
2023-01-17T16:21:14.736Z,96874.13
2023-01-17T16:25:21.653Z,96881.47
2023-01-17T16:29:23.634Z,96870.88
2023-01-17T16:33:25.542Z,96876.56
2023-01-17T16:37:27.077Z,96868.41
2023-01-17T16:41:28.736Z,96866.78
2023-01-17T16:45:30.487Z,96875.53
2023-01-17T16:49:33.469Z,96871.16
2023-01-17T16:53:35.352Z,96870.63
2023-01-17T16:57:36.940Z,96868.19
2023-01-17T17:01:38.713Z,96867.94
2023-01-17T17:05:40.302Z,96854.31
2023-01-17T17:09:42.108Z,96865.75
2023-01-17T17:13:48.917Z,96865.75
2023-01-17T17:17:51.254Z,96863.56
2023-01-17T17:21:52.967Z,96871.44
2023-01-17T17:25:57.768Z,96870.91
2023-01-17T17:29:59.402Z,96870.91
2023-01-17T17:34:02.264Z,96875.53
2023-01-17T17:38:06.637Z,96874.69
2023-01-17T17:42:08.635Z,96880.13
2023-01-17T17:46:10.497Z,96886.34
2023-01-17T17:50:13.228Z,96889.09
2023-01-17T17:54:17.384Z,96894.78
2023-01-17T17:58:19.794Z,96893.97
2023-01-17T18:02:21.430Z,96895.59
2023-01-17T18:06:23.791Z,96889.34
2023-01-17T18:10:33.970Z,96890.16
2023-01-17T18:14:36.203Z,96889.09
2023-01-17T18:18:40.271Z,96895.06
2023-01-17T18:22:41.912Z,96890.16
2023-01-17T18:26:50.060Z,96906.75
2023-01-17T18:30:51.637Z,96908.09
2023-01-17T18:34:53.221Z,96913.81
2023-01-17T18:38:55.313Z,96911.09
2023-01-17T18:42:57.578Z,96915.16
2023-01-17T18:47:04.539Z,96916.22
2023-01-17T18:51:09.260Z,96909.16
2023-01-17T18:55:10.971Z,96911.88
2023-01-17T18:59:14.898Z,96921.94
2023-01-17T19:03:25.528Z,96926.81
2023-01-17T19:07:29.705Z,96930.34
2023-01-17T19:11:31.554Z,96934.13
2023-01-17T19:15:33.744Z,96925.69
2023-01-17T19:19:35.380Z,96947.72
2023-01-17T19:23:37.886Z,96947.19
2023-01-17T19:27:39.707Z,96953.94
2023-01-17T19:31:43.443Z,96967.31
2023-01-17T19:35:46.030Z,96966.25
2023-01-17T19:39:47.664Z,96975.81
2023-01-17T19:43:54.392Z,96979.91
2023-01-17T19:47:56.317Z,96971.78
2023-01-17T19:51:58.045Z,96976.97
2023-01-17T19:55:59.843Z,96970.72
2023-01-17T20:00:02.357Z,96975.06
2023-01-17T20:04:14.139Z,96972.34
2023-01-17T20:08:15.829Z,96964.75
2023-01-17T20:12:17.436Z,96967.22
2023-01-17T20:16:19.275Z,96959.31
2023-01-17T20:20:24.362Z,96966.38
2023-01-17T20:24:26.610Z,96969.94
2023-01-17T20:28:29.672Z,96966.38
2023-01-17T20:32:31.333Z,96964.47
2023-01-17T20:36:33.224Z,96966.63
2023-01-17T20:40:36.542Z,96974.50
2023-01-17T20:44:38.141Z,96966.88
2023-01-17T20:48:47.163Z,96969.56
2023-01-17T20:52:48.701Z,96969.78
2023-01-17T20:56:50.682Z,96977.66
2023-01-17T21:00:54.929Z,96973.53
2023-01-17T21:04:58.795Z,96976.50
2023-01-17T21:09:00.879Z,96977.28
2023-01-17T21:13:02.582Z,96985.13
2023-01-17T21:17:04.256Z,96979.44
2023-01-17T21:21:08.126Z,96976.44
2023-01-17T21:25:10.074Z,96986.44
2023-01-17T21:29:12.696Z,96983.72
2023-01-17T21:33:14.251Z,96987.50
2023-01-17T21:37:15.784Z,96994.28
2023-01-17T21:41:18.199Z,96995.34
2023-01-17T21:45:20.272Z,96994.50
2023-01-17T21:49:21.890Z,96987.97
2023-01-17T21:53:23.446Z,96988.81
2023-01-17T21:57:43.464Z,96993.41
2023-01-17T22:01:45.064Z,96993.16
2023-01-17T22:05:46.707Z,96996.13
2023-01-17T22:09:48.253Z,96996.69
2023-01-17T22:13:50.371Z,96999.13
2023-01-17T22:17:52.235Z,97004.03
2023-01-17T22:21:54.168Z,97008.66
2023-01-17T22:26:01.662Z,97013.28
2023-01-17T22:30:03.373Z,97001.88
2023-01-17T22:34:05.688Z,97001.59
2023-01-17T22:38:07.214Z,97013.22
2023-01-17T22:42:08.828Z,97005.88
2023-01-17T22:46:14.660Z,97005.31
2023-01-17T22:50:16.478Z,96994.47
2023-01-17T22:54:19.553Z,96998.28
2023-01-17T22:58:21.107Z,97001.00
2023-01-17T23:02:22.947Z,97001.53
2023-01-17T23:06:36.098Z,97001.53
2023-01-17T23:10:56.287Z,97008.31
2023-01-17T23:15:16.479Z,96998.56
2023-01-17T23:19:24.265Z,96992.03
2023-01-17T23:23:25.814Z,96997.75
2023-01-17T23:27:49.721Z,96987.69
2023-01-17T23:31:51.257Z,96985.50
2023-01-17T23:35:53.482Z,96998.28
2023-01-17T23:39:55.077Z,96996.09
2023-01-17T23:43:58.256Z,96993.38
2023-01-17T23:47:59.825Z,96982.75
2023-01-17T23:52:01.376Z,96984.09
2023-01-17T23:56:18.515Z,96990.84
